sensor_id;sensor_type;location;lat;lon;timestamp;P1;durP1;ratioP1;P2;durP2;ratioP2
33475;SDS011;19814;48.224;11.422;2023-05-27T00:01:00;8.95;;;5.22;;
33475;SDS011;19814;48.224;11.422;2023-05-27T00:03:26;7.40;;;4.50;;
33475;SDS011;19814;48.224;11.422;2023-05-27T00:05:51;8.05;;;5.03;;
33475;SDS011;19814;48.224;11.422;2023-05-27T00:08:17;9.38;;;4.68;;
33475;SDS011;19814;48.224;11.422;2023-05-27T00:10:43;7.13;;;4.38;;
33475;SDS011;19814;48.224;11.422;2023-05-27T00:13:09;8.75;;;5.05;;
33475;SDS011;19814;48.224;11.422;2023-05-27T00:15:34;10.60;;;4.90;;
33475;SDS011;19814;48.224;11.422;2023-05-27T00:18:00;8.43;;;4.45;;
33475;SDS011;19814;48.224;11.422;2023-05-27T00:20:27;10.55;;;5.22;;
33475;SDS011;19814;48.224;11.422;2023-05-27T00:22:54;10.27;;;4.72;;
33475;SDS011;19814;48.224;11.422;2023-05-27T00:25:21;7.80;;;4.97;;
33475;SDS011;19814;48.224;11.422;2023-05-27T00:27:47;7.82;;;4.50;;
33475;SDS011;19814;48.224;11.422;2023-05-27T00:30:13;8.68;;;4.20;;
33475;SDS011;19814;48.224;11.422;2023-05-27T00:32:40;9.35;;;5.25;;
33475;SDS011;19814;48.224;11.422;2023-05-27T00:35:06;9.20;;;4.88;;
33475;SDS011;19814;48.224;11.422;2023-05-27T00:37:32;9.18;;;4.45;;
33475;SDS011;19814;48.224;11.422;2023-05-27T00:39:57;8.85;;;4.88;;
33475;SDS011;19814;48.224;11.422;2023-05-27T00:42:23;8.98;;;4.95;;
33475;SDS011;19814;48.224;11.422;2023-05-27T00:44:49;8.98;;;4.97;;
33475;SDS011;19814;48.224;11.422;2023-05-27T00:47:15;9.10;;;4.90;;
33475;SDS011;19814;48.224;11.422;2023-05-27T00:49:41;8.82;;;5.13;;
33475;SDS011;19814;48.224;11.422;2023-05-27T00:52:07;9.25;;;4.85;;
33475;SDS011;19814;48.224;11.422;2023-05-27T00:54:34;9.18;;;5.40;;
33475;SDS011;19814;48.224;11.422;2023-05-27T00:57:00;9.60;;;5.25;;
33475;SDS011;19814;48.224;11.422;2023-05-27T00:59:27;9.70;;;5.20;;
33475;SDS011;19814;48.224;11.422;2023-05-27T01:01:53;8.60;;;4.88;;
33475;SDS011;19814;48.224;11.422;2023-05-27T01:04:18;9.25;;;5.13;;
33475;SDS011;19814;48.224;11.422;2023-05-27T01:15:14;8.52;;;5.03;;
33475;SDS011;19814;48.224;11.422;2023-05-27T01:17:40;8.38;;;5.35;;
33475;SDS011;19814;48.224;11.422;2023-05-27T01:20:10;12.93;;;4.85;;
33475;SDS011;19814;48.224;11.422;2023-05-27T01:22:38;8.73;;;4.97;;
33475;SDS011;19814;48.224;11.422;2023-05-27T01:25:06;8.05;;;5.32;;
33475;SDS011;19814;48.224;11.422;2023-05-27T01:27:32;10.32;;;5.47;;
33475;SDS011;19814;48.224;11.422;2023-05-27T01:29:58;8.75;;;5.10;;
33475;SDS011;19814;48.224;11.422;2023-05-27T01:32:27;9.85;;;5.80;;
33475;SDS011;19814;48.224;11.422;2023-05-27T01:35:02;8.90;;;5.05;;
33475;SDS011;19814;48.224;11.422;2023-05-27T01:37:35;9.30;;;5.18;;
33475;SDS011;19814;48.224;11.422;2023-05-27T01:40:03;9.73;;;5.40;;
33475;SDS011;19814;48.224;11.422;2023-05-27T01:42:32;8.00;;;4.57;;
33475;SDS011;19814;48.224;11.422;2023-05-27T01:44:59;9.63;;;5.03;;
33475;SDS011;19814;48.224;11.422;2023-05-27T01:47:26;9.13;;;5.15;;
33475;SDS011;19814;48.224;11.422;2023-05-27T01:49:52;11.55;;;5.57;;
33475;SDS011;19814;48.224;11.422;2023-05-27T01:52:17;12.38;;;4.95;;
33475;SDS011;19814;48.224;11.422;2023-05-27T01:54:43;9.70;;;5.43;;
33475;SDS011;19814;48.224;11.422;2023-05-27T01:57:08;8.02;;;5.20;;
33475;SDS011;19814;48.224;11.422;2023-05-27T01:59:34;8.30;;;4.90;;
33475;SDS011;19814;48.224;11.422;2023-05-27T02:02:00;9.88;;;4.88;;
33475;SDS011;19814;48.224;11.422;2023-05-27T02:04:25;8.65;;;5.32;;
33475;SDS011;19814;48.224;11.422;2023-05-27T02:06:51;9.80;;;5.00;;
33475;SDS011;19814;48.224;11.422;2023-05-27T02:09:16;9.55;;;5.40;;
33475;SDS011;19814;48.224;11.422;2023-05-27T02:11:42;9.25;;;5.30;;
33475;SDS011;19814;48.224;11.422;2023-05-27T02:14:07;9.05;;;5.55;;
33475;SDS011;19814;48.224;11.422;2023-05-27T02:16:33;9.60;;;5.82;;
33475;SDS011;19814;48.224;11.422;2023-05-27T02:19:00;8.45;;;5.38;;
33475;SDS011;19814;48.224;11.422;2023-05-27T02:21:26;8.18;;;5.47;;
33475;SDS011;19814;48.224;11.422;2023-05-27T02:23:51;9.23;;;5.30;;
33475;SDS011;19814;48.224;11.422;2023-05-27T02:26:17;7.82;;;5.50;;
33475;SDS011;19814;48.224;11.422;2023-05-27T02:28:42;7.07;;;4.93;;
33475;SDS011;19814;48.224;11.422;2023-05-27T02:31:08;9.93;;;6.43;;
33475;SDS011;19814;48.224;11.422;2023-05-27T02:33:34;9.60;;;5.68;;
33475;SDS011;19814;48.224;11.422;2023-05-27T02:35:59;8.90;;;5.68;;
33475;SDS011;19814;48.224;11.422;2023-05-27T02:38:25;8.90;;;5.15;;
33475;SDS011;19814;48.224;11.422;2023-05-27T02:40:51;10.65;;;6.10;;
33475;SDS011;19814;48.224;11.422;2023-05-27T02:43:16;9.15;;;5.80;;
33475;SDS011;19814;48.224;11.422;2023-05-27T02:45:42;10.15;;;6.25;;
33475;SDS011;19814;48.224;11.422;2023-05-27T02:48:07;10.73;;;5.72;;
33475;SDS011;19814;48.224;11.422;2023-05-27T02:50:33;8.40;;;5.32;;
33475;SDS011;19814;48.224;11.422;2023-05-27T02:52:58;12.30;;;5.50;;
33475;SDS011;19814;48.224;11.422;2023-05-27T02:55:24;11.63;;;5.32;;
33475;SDS011;19814;48.224;11.422;2023-05-27T02:57:50;9.63;;;5.68;;
33475;SDS011;19814;48.224;11.422;2023-05-27T03:00:15;9.43;;;5.60;;
33475;SDS011;19814;48.224;11.422;2023-05-27T03:02:42;10.68;;;6.05;;
33475;SDS011;19814;48.224;11.422;2023-05-27T03:05:08;8.63;;;6.15;;
33475;SDS011;19814;48.224;11.422;2023-05-27T03:07:33;9.30;;;6.05;;
33475;SDS011;19814;48.224;11.422;2023-05-27T03:09:59;11.52;;;5.35;;
33475;SDS011;19814;48.224;11.422;2023-05-27T03:12:25;12.75;;;6.30;;
33475;SDS011;19814;48.224;11.422;2023-05-27T03:14:50;10.52;;;5.28;;
33475;SDS011;19814;48.224;11.422;2023-05-27T03:17:17;13.43;;;5.63;;
33475;SDS011;19814;48.224;11.422;2023-05-27T03:19:43;12.35;;;6.10;;
33475;SDS011;19814;48.224;11.422;2023-05-27T03:22:09;8.45;;;5.80;;
33475;SDS011;19814;48.224;11.422;2023-05-27T03:24:35;8.77;;;5.90;;
33475;SDS011;19814;48.224;11.422;2023-05-27T03:27:00;10.10;;;5.55;;
33475;SDS011;19814;48.224;11.422;2023-05-27T03:29:28;11.40;;;5.85;;
33475;SDS011;19814;48.224;11.422;2023-05-27T03:31:54;10.73;;;6.18;;
33475;SDS011;19814;48.224;11.422;2023-05-27T03:34:20;10.38;;;6.28;;
33475;SDS011;19814;48.224;11.422;2023-05-27T03:36:45;9.55;;;5.90;;
33475;SDS011;19814;48.224;11.422;2023-05-27T03:39:11;11.88;;;5.70;;
33475;SDS011;19814;48.224;11.422;2023-05-27T03:41:37;10.52;;;6.30;;
33475;SDS011;19814;48.224;11.422;2023-05-27T03:44:03;10.57;;;6.10;;
33475;SDS011;19814;48.224;11.422;2023-05-27T03:46:29;9.65;;;5.88;;
33475;SDS011;19814;48.224;11.422;2023-05-27T03:48:54;10.75;;;6.03;;
33475;SDS011;19814;48.224;11.422;2023-05-27T03:51:20;12.13;;;6.10;;
33475;SDS011;19814;48.224;11.422;2023-05-27T03:53:46;10.35;;;5.22;;
33475;SDS011;19814;48.224;11.422;2023-05-27T03:56:12;8.63;;;5.32;;
33475;SDS011;19814;48.224;11.422;2023-05-27T03:58:38;8.35;;;5.18;;
33475;SDS011;19814;48.224;11.422;2023-05-27T04:01:03;16.52;;;6.25;;
33475;SDS011;19814;48.224;11.422;2023-05-27T04:03:29;9.55;;;5.70;;
33475;SDS011;19814;48.224;11.422;2023-05-27T04:05:54;9.80;;;5.55;;
33475;SDS011;19814;48.224;11.422;2023-05-27T04:08:21;9.20;;;6.05;;
33475;SDS011;19814;48.224;11.422;2023-05-27T04:10:47;14.25;;;5.60;;
33475;SDS011;19814;48.224;11.422;2023-05-27T04:13:13;9.55;;;5.53;;
33475;SDS011;19814;48.224;11.422;2023-05-27T04:15:38;9.50;;;5.15;;
33475;SDS011;19814;48.224;11.422;2023-05-27T04:18:04;11.65;;;5.82;;
33475;SDS011;19814;48.224;11.422;2023-05-27T04:20:39;12.32;;;6.00;;
33475;SDS011;19814;48.224;11.422;2023-05-27T04:23:07;9.27;;;5.70;;
33475;SDS011;19814;48.224;11.422;2023-05-27T04:25:33;7.88;;;4.97;;
33475;SDS011;19814;48.224;11.422;2023-05-27T04:28:08;8.93;;;5.57;;
33475;SDS011;19814;48.224;11.422;2023-05-27T04:30:34;9.82;;;5.70;;
33475;SDS011;19814;48.224;11.422;2023-05-27T04:33:01;7.57;;;4.60;;
33475;SDS011;19814;48.224;11.422;2023-05-27T04:35:29;10.15;;;5.82;;
33475;SDS011;19814;48.224;11.422;2023-05-27T04:37:58;8.88;;;4.95;;
33475;SDS011;19814;48.224;11.422;2023-05-27T04:40:26;8.50;;;4.72;;
33475;SDS011;19814;48.224;11.422;2023-05-27T04:42:51;10.55;;;5.43;;
33475;SDS011;19814;48.224;11.422;2023-05-27T04:45:17;10.48;;;5.05;;
33475;SDS011;19814;48.224;11.422;2023-05-27T04:47:43;11.07;;;5.50;;
33475;SDS011;19814;48.224;11.422;2023-05-27T04:50:09;8.43;;;5.13;;
33475;SDS011;19814;48.224;11.422;2023-05-27T04:52:35;10.00;;;5.25;;
33475;SDS011;19814;48.224;11.422;2023-05-27T04:55:06;12.98;;;5.18;;
33475;SDS011;19814;48.224;11.422;2023-05-27T04:57:33;8.30;;;4.53;;
33475;SDS011;19814;48.224;11.422;2023-05-27T05:00:01;10.45;;;4.88;;
33475;SDS011;19814;48.224;11.422;2023-05-27T05:02:30;8.20;;;4.72;;
33475;SDS011;19814;48.224;11.422;2023-05-27T05:05:02;8.13;;;4.97;;
33475;SDS011;19814;48.224;11.422;2023-05-27T05:07:35;8.88;;;4.50;;
33475;SDS011;19814;48.224;11.422;2023-05-27T05:10:03;10.20;;;4.97;;
33475;SDS011;19814;48.224;11.422;2023-05-27T05:12:30;8.35;;;4.82;;
33475;SDS011;19814;48.224;11.422;2023-05-27T05:14:55;6.85;;;4.57;;
33475;SDS011;19814;48.224;11.422;2023-05-27T05:17:23;9.20;;;4.78;;
33475;SDS011;19814;48.224;11.422;2023-05-27T05:19:49;10.73;;;4.30;;
33475;SDS011;19814;48.224;11.422;2023-05-27T05:22:16;8.88;;;4.38;;
33475;SDS011;19814;48.224;11.422;2023-05-27T05:24:44;12.10;;;4.68;;
33475;SDS011;19814;48.224;11.422;2023-05-27T05:27:10;7.60;;;3.92;;
33475;SDS011;19814;48.224;11.422;2023-05-27T05:29:36;8.25;;;4.60;;
33475;SDS011;19814;48.224;11.422;2023-05-27T05:32:02;9.35;;;5.05;;
33475;SDS011;19814;48.224;11.422;2023-05-27T05:34:28;9.90;;;4.78;;
33475;SDS011;19814;48.224;11.422;2023-05-27T05:36:54;10.55;;;4.75;;
33475;SDS011;19814;48.224;11.422;2023-05-27T05:39:20;8.23;;;3.83;;
33475;SDS011;19814;48.224;11.422;2023-05-27T05:41:45;9.95;;;4.20;;
33475;SDS011;19814;48.224;11.422;2023-05-27T05:44:11;8.88;;;4.28;;
33475;SDS011;19814;48.224;11.422;2023-05-27T05:46:37;11.10;;;4.20;;
33475;SDS011;19814;48.224;11.422;2023-05-27T05:49:03;10.05;;;4.20;;
33475;SDS011;19814;48.224;11.422;2023-05-27T05:51:30;7.88;;;3.80;;
33475;SDS011;19814;48.224;11.422;2023-05-27T05:53:56;7.82;;;3.90;;
33475;SDS011;19814;48.224;11.422;2023-05-27T05:56:22;11.85;;;4.60;;
33475;SDS011;19814;48.224;11.422;2023-05-27T05:58:47;9.70;;;3.63;;
33475;SDS011;19814;48.224;11.422;2023-05-27T06:01:13;9.30;;;4.18;;
33475;SDS011;19814;48.224;11.422;2023-05-27T06:03:38;10.00;;;4.13;;
33475;SDS011;19814;48.224;11.422;2023-05-27T06:06:04;8.85;;;3.90;;
33475;SDS011;19814;48.224;11.422;2023-05-27T06:08:30;10.40;;;4.00;;
33475;SDS011;19814;48.224;11.422;2023-05-27T06:10:55;6.55;;;3.20;;
33475;SDS011;19814;48.224;11.422;2023-05-27T06:13:21;8.77;;;3.90;;
33475;SDS011;19814;48.224;11.422;2023-05-27T06:15:46;5.32;;;3.00;;
33475;SDS011;19814;48.224;11.422;2023-05-27T06:18:12;6.18;;;3.30;;
33475;SDS011;19814;48.224;11.422;2023-05-27T06:20:37;7.95;;;3.55;;
33475;SDS011;19814;48.224;11.422;2023-05-27T06:23:03;12.02;;;4.45;;
33475;SDS011;19814;48.224;11.422;2023-05-27T06:25:28;10.38;;;4.10;;
33475;SDS011;19814;48.224;11.422;2023-05-27T06:27:54;7.68;;;4.00;;
33475;SDS011;19814;48.224;11.422;2023-05-27T06:30:19;7.85;;;3.60;;
33475;SDS011;19814;48.224;11.422;2023-05-27T06:32:45;9.20;;;3.30;;
33475;SDS011;19814;48.224;11.422;2023-05-27T06:35:10;8.07;;;3.72;;
33475;SDS011;19814;48.224;11.422;2023-05-27T06:37:36;8.50;;;3.78;;
33475;SDS011;19814;48.224;11.422;2023-05-27T06:40:01;9.25;;;3.63;;
33475;SDS011;19814;48.224;11.422;2023-05-27T06:42:27;5.25;;;2.80;;
33475;SDS011;19814;48.224;11.422;2023-05-27T06:44:53;6.90;;;3.15;;
33475;SDS011;19814;48.224;11.422;2023-05-27T06:47:18;6.70;;;2.95;;
33475;SDS011;19814;48.224;11.422;2023-05-27T06:49:44;9.48;;;4.07;;
33475;SDS011;19814;48.224;11.422;2023-05-27T06:52:09;8.38;;;3.08;;
33475;SDS011;19814;48.224;11.422;2023-05-27T06:54:35;8.63;;;2.92;;
33475;SDS011;19814;48.224;11.422;2023-05-27T06:57:01;8.93;;;3.28;;
33475;SDS011;19814;48.224;11.422;2023-05-27T06:59:27;6.97;;;3.25;;
33475;SDS011;19814;48.224;11.422;2023-05-27T07:01:55;7.93;;;3.30;;
33475;SDS011;19814;48.224;11.422;2023-05-27T07:04:21;6.85;;;3.55;;
33475;SDS011;19814;48.224;11.422;2023-05-27T07:06:47;8.00;;;3.30;;
33475;SDS011;19814;48.224;11.422;2023-05-27T07:09:13;8.75;;;3.47;;
33475;SDS011;19814;48.224;11.422;2023-05-27T07:11:39;10.25;;;3.88;;
33475;SDS011;19814;48.224;11.422;2023-05-27T07:14:05;7.97;;;3.30;;
33475;SDS011;19814;48.224;11.422;2023-05-27T07:16:36;10.32;;;3.28;;
33475;SDS011;19814;48.224;11.422;2023-05-27T07:19:02;5.57;;;3.00;;
33475;SDS011;19814;48.224;11.422;2023-05-27T07:21:28;11.75;;;3.75;;
33475;SDS011;19814;48.224;11.422;2023-05-27T07:23:53;7.97;;;3.60;;
33475;SDS011;19814;48.224;11.422;2023-05-27T07:26:19;7.72;;;3.17;;
33475;SDS011;19814;48.224;11.422;2023-05-27T07:28:45;11.15;;;3.53;;
33475;SDS011;19814;48.224;11.422;2023-05-27T07:31:11;10.85;;;3.30;;
33475;SDS011;19814;48.224;11.422;2023-05-27T07:33:36;7.45;;;3.25;;
33475;SDS011;19814;48.224;11.422;2023-05-27T07:36:02;6.15;;;2.95;;
33475;SDS011;19814;48.224;11.422;2023-05-27T07:38:27;7.35;;;3.30;;
33475;SDS011;19814;48.224;11.422;2023-05-27T07:40:53;7.65;;;3.13;;
33475;SDS011;19814;48.224;11.422;2023-05-27T07:43:19;9.10;;;2.92;;
33475;SDS011;19814;48.224;11.422;2023-05-27T07:45:44;7.75;;;3.08;;
33475;SDS011;19814;48.224;11.422;2023-05-27T07:48:10;7.72;;;3.00;;
33475;SDS011;19814;48.224;11.422;2023-05-27T07:50:35;9.00;;;3.20;;
33475;SDS011;19814;48.224;11.422;2023-05-27T07:53:01;12.18;;;3.38;;
33475;SDS011;19814;48.224;11.422;2023-05-27T07:55:26;6.57;;;2.95;;
33475;SDS011;19814;48.224;11.422;2023-05-27T07:57:53;6.95;;;3.35;;
33475;SDS011;19814;48.224;11.422;2023-05-27T08:00:20;9.77;;;3.85;;
33475;SDS011;19814;48.224;11.422;2023-05-27T08:02:46;7.82;;;3.33;;
33475;SDS011;19814;48.224;11.422;2023-05-27T08:05:11;16.77;;;3.53;;
33475;SDS011;19814;48.224;11.422;2023-05-27T08:07:37;10.23;;;3.35;;
33475;SDS011;19814;48.224;11.422;2023-05-27T08:10:02;8.52;;;2.75;;
33475;SDS011;19814;48.224;11.422;2023-05-27T08:12:29;5.55;;;3.05;;
33475;SDS011;19814;48.224;11.422;2023-05-27T08:14:54;6.13;;;3.22;;
33475;SDS011;19814;48.224;11.422;2023-05-27T08:17:20;8.77;;;3.72;;
33475;SDS011;19814;48.224;11.422;2023-05-27T08:19:46;6.50;;;3.05;;
33475;SDS011;19814;48.224;11.422;2023-05-27T08:22:11;9.10;;;3.40;;
33475;SDS011;19814;48.224;11.422;2023-05-27T08:24:37;6.93;;;3.00;;
33475;SDS011;19814;48.224;11.422;2023-05-27T08:27:03;10.05;;;2.85;;
33475;SDS011;19814;48.224;11.422;2023-05-27T08:29:30;7.18;;;3.28;;
33475;SDS011;19814;48.224;11.422;2023-05-27T08:31:57;8.35;;;3.30;;
33475;SDS011;19814;48.224;11.422;2023-05-27T08:34:23;17.15;;;3.95;;
33475;SDS011;19814;48.224;11.422;2023-05-27T08:36:48;16.20;;;3.65;;
33475;SDS011;19814;48.224;11.422;2023-05-27T08:39:14;10.10;;;2.83;;
33475;SDS011;19814;48.224;11.422;2023-05-27T08:41:39;18.45;;;4.28;;
33475;SDS011;19814;48.224;11.422;2023-05-27T08:44:06;10.85;;;3.60;;
33475;SDS011;19814;48.224;11.422;2023-05-27T08:46:31;11.15;;;3.38;;
33475;SDS011;19814;48.224;11.422;2023-05-27T08:48:58;7.68;;;3.00;;
33475;SDS011;19814;48.224;11.422;2023-05-27T08:51:24;18.63;;;3.60;;
33475;SDS011;19814;48.224;11.422;2023-05-27T08:53:51;8.45;;;3.75;;
33475;SDS011;19814;48.224;11.422;2023-05-27T08:56:18;7.72;;;3.45;;
33475;SDS011;19814;48.224;11.422;2023-05-27T08:58:46;7.30;;;3.50;;
33475;SDS011;19814;48.224;11.422;2023-05-27T09:01:12;9.98;;;3.80;;
33475;SDS011;19814;48.224;11.422;2023-05-27T09:03:44;7.97;;;3.20;;
33475;SDS011;19814;48.224;11.422;2023-05-27T09:06:10;7.28;;;3.28;;
33475;SDS011;19814;48.224;11.422;2023-05-27T09:08:36;7.25;;;3.50;;
33475;SDS011;19814;48.224;11.422;2023-05-27T09:11:02;7.70;;;3.30;;
33475;SDS011;19814;48.224;11.422;2023-05-27T09:13:28;8.40;;;3.20;;
33475;SDS011;19814;48.224;11.422;2023-05-27T09:15:58;6.75;;;3.08;;
33475;SDS011;19814;48.224;11.422;2023-05-27T09:18:29;8.38;;;3.20;;
33475;SDS011;19814;48.224;11.422;2023-05-27T09:20:56;10.32;;;3.20;;
33475;SDS011;19814;48.224;11.422;2023-05-27T09:23:22;9.25;;;3.53;;
33475;SDS011;19814;48.224;11.422;2023-05-27T09:25:48;8.23;;;3.53;;
33475;SDS011;19814;48.224;11.422;2023-05-27T09:28:24;7.45;;;3.60;;
33475;SDS011;19814;48.224;11.422;2023-05-27T09:30:51;6.22;;;3.10;;
33475;SDS011;19814;48.224;11.422;2023-05-27T09:33:29;9.80;;;2.97;;
33475;SDS011;19814;48.224;11.422;2023-05-27T09:36:03;7.25;;;3.80;;
33475;SDS011;19814;48.224;11.422;2023-05-27T09:38:33;10.13;;;4.05;;
33475;SDS011;19814;48.224;11.422;2023-05-27T09:41:00;7.82;;;3.65;;
33475;SDS011;19814;48.224;11.422;2023-05-27T09:43:27;7.82;;;3.58;;
33475;SDS011;19814;48.224;11.422;2023-05-27T09:45:58;8.55;;;3.70;;
33475;SDS011;19814;48.224;11.422;2023-05-27T09:48:29;10.48;;;4.07;;
33475;SDS011;19814;48.224;11.422;2023-05-27T09:50:58;7.18;;;3.60;;
33475;SDS011;19814;48.224;11.422;2023-05-27T09:53:25;7.45;;;3.28;;
33475;SDS011;19814;48.224;11.422;2023-05-27T09:55:55;7.47;;;4.05;;
33475;SDS011;19814;48.224;11.422;2023-05-27T09:58:21;7.18;;;4.07;;
33475;SDS011;19814;48.224;11.422;2023-05-27T10:00:48;6.65;;;3.53;;
33475;SDS011;19814;48.224;11.422;2023-05-27T10:03:14;6.80;;;3.70;;
33475;SDS011;19814;48.224;11.422;2023-05-27T10:05:42;7.25;;;3.90;;
33475;SDS011;19814;48.224;11.422;2023-05-27T10:08:10;9.38;;;4.18;;
33475;SDS011;19814;48.224;11.422;2023-05-27T10:10:37;8.63;;;3.75;;
33475;SDS011;19814;48.224;11.422;2023-05-27T10:13:03;6.28;;;3.85;;
33475;SDS011;19814;48.224;11.422;2023-05-27T10:15:30;6.03;;;3.67;;
33475;SDS011;19814;48.224;11.422;2023-05-27T10:17:57;6.68;;;3.25;;
33475;SDS011;19814;48.224;11.422;2023-05-27T10:20:34;6.10;;;3.87;;
33475;SDS011;19814;48.224;11.422;2023-05-27T10:23:11;6.90;;;3.35;;
33475;SDS011;19814;48.224;11.422;2023-05-27T10:25:38;5.82;;;3.50;;
33475;SDS011;19814;48.224;11.422;2023-05-27T10:28:05;13.00;;;3.67;;
33475;SDS011;19814;48.224;11.422;2023-05-27T10:30:44;8.88;;;4.25;;
33475;SDS011;19814;48.224;11.422;2023-05-27T10:33:11;7.15;;;3.33;;
33475;SDS011;19814;48.224;11.422;2023-05-27T10:35:40;6.70;;;3.40;;
33475;SDS011;19814;48.224;11.422;2023-05-27T10:38:13;8.68;;;3.97;;
33475;SDS011;19814;48.224;11.422;2023-05-27T10:40:42;6.63;;;3.20;;
33475;SDS011;19814;48.224;11.422;2023-05-27T10:43:16;5.55;;;3.00;;
33475;SDS011;19814;48.224;11.422;2023-05-27T10:45:43;8.82;;;3.72;;
33475;SDS011;19814;48.224;11.422;2023-05-27T10:48:19;7.90;;;3.83;;
33475;SDS011;19814;48.224;11.422;2023-05-27T10:50:56;7.40;;;3.60;;
33475;SDS011;19814;48.224;11.422;2023-05-27T10:53:22;8.10;;;3.30;;
33475;SDS011;19814;48.224;11.422;2023-05-27T10:55:51;8.70;;;3.55;;
33475;SDS011;19814;48.224;11.422;2023-05-27T10:58:17;6.18;;;3.50;;
33475;SDS011;19814;48.224;11.422;2023-05-27T11:00:44;8.10;;;3.60;;
33475;SDS011;19814;48.224;11.422;2023-05-27T11:03:20;6.45;;;3.05;;
33475;SDS011;19814;48.224;11.422;2023-05-27T11:05:55;6.45;;;3.13;;
33475;SDS011;19814;48.224;11.422;2023-05-27T11:08:25;8.43;;;3.50;;
33475;SDS011;19814;48.224;11.422;2023-05-27T11:10:51;6.50;;;3.47;;
33475;SDS011;19814;48.224;11.422;2023-05-27T11:13:22;8.43;;;3.85;;
33475;SDS011;19814;48.224;11.422;2023-05-27T11:15:54;7.35;;;3.72;;
33475;SDS011;19814;48.224;11.422;2023-05-27T11:18:19;15.52;;;14.02;;
33475;SDS011;19814;48.224;11.422;2023-05-27T11:20:45;6.32;;;3.38;;
33475;SDS011;19814;48.224;11.422;2023-05-27T11:23:12;10.00;;;3.92;;
33475;SDS011;19814;48.224;11.422;2023-05-27T11:25:41;7.45;;;3.80;;
33475;SDS011;19814;48.224;11.422;2023-05-27T11:28:13;7.70;;;3.55;;
33475;SDS011;19814;48.224;11.422;2023-05-27T11:30:42;6.60;;;3.40;;
33475;SDS011;19814;48.224;11.422;2023-05-27T11:33:07;9.18;;;3.47;;
33475;SDS011;19814;48.224;11.422;2023-05-27T11:35:33;8.80;;;3.65;;
33475;SDS011;19814;48.224;11.422;2023-05-27T11:37:59;6.35;;;3.53;;
33475;SDS011;19814;48.224;11.422;2023-05-27T11:40:26;8.68;;;3.65;;
33475;SDS011;19814;48.224;11.422;2023-05-27T11:43:00;7.38;;;3.63;;
33475;SDS011;19814;48.224;11.422;2023-05-27T11:45:26;6.40;;;3.80;;
33475;SDS011;19814;48.224;11.422;2023-05-27T11:47:52;7.00;;;3.65;;
33475;SDS011;19814;48.224;11.422;2023-05-27T11:50:22;8.13;;;3.53;;
33475;SDS011;19814;48.224;11.422;2023-05-27T11:52:53;6.80;;;3.38;;
33475;SDS011;19814;48.224;11.422;2023-05-27T11:55:21;6.82;;;3.95;;
33475;SDS011;19814;48.224;11.422;2023-05-27T11:57:48;7.43;;;3.90;;
33475;SDS011;19814;48.224;11.422;2023-05-27T12:00:14;6.60;;;3.40;;
33475;SDS011;19814;48.224;11.422;2023-05-27T12:02:40;7.43;;;3.83;;
33475;SDS011;19814;48.224;11.422;2023-05-27T12:05:07;6.90;;;3.63;;
33475;SDS011;19814;48.224;11.422;2023-05-27T12:07:33;7.20;;;4.15;;
33475;SDS011;19814;48.224;11.422;2023-05-27T12:10:00;11.18;;;3.53;;
33475;SDS011;19814;48.224;11.422;2023-05-27T12:12:26;5.60;;;3.35;;
33475;SDS011;19814;48.224;11.422;2023-05-27T12:14:52;7.53;;;3.83;;
33475;SDS011;19814;48.224;11.422;2023-05-27T12:17:17;8.35;;;3.47;;
33475;SDS011;19814;48.224;11.422;2023-05-27T12:19:43;7.15;;;3.10;;
33475;SDS011;19814;48.224;11.422;2023-05-27T12:22:08;6.47;;;3.50;;
33475;SDS011;19814;48.224;11.422;2023-05-27T12:24:34;8.25;;;2.90;;
33475;SDS011;19814;48.224;11.422;2023-05-27T12:26:59;7.13;;;2.97;;
33475;SDS011;19814;48.224;11.422;2023-05-27T12:29:26;6.57;;;3.10;;
33475;SDS011;19814;48.224;11.422;2023-05-27T12:31:53;8.10;;;3.25;;
33475;SDS011;19814;48.224;11.422;2023-05-27T12:34:18;10.23;;;3.83;;
33475;SDS011;19814;48.224;11.422;2023-05-27T12:36:44;6.72;;;2.67;;
33475;SDS011;19814;48.224;11.422;2023-05-27T12:39:10;6.90;;;3.05;;
33475;SDS011;19814;48.224;11.422;2023-05-27T12:41:35;9.77;;;3.08;;
33475;SDS011;19814;48.224;11.422;2023-05-27T12:44:01;6.55;;;3.05;;
33475;SDS011;19814;48.224;11.422;2023-05-27T12:46:27;7.97;;;3.08;;
33475;SDS011;19814;48.224;11.422;2023-05-27T12:48:52;7.35;;;2.50;;
33475;SDS011;19814;48.224;11.422;2023-05-27T12:51:18;6.93;;;2.95;;
33475;SDS011;19814;48.224;11.422;2023-05-27T12:53:43;9.23;;;3.63;;
33475;SDS011;19814;48.224;11.422;2023-05-27T12:56:09;9.77;;;3.55;;
33475;SDS011;19814;48.224;11.422;2023-05-27T12:58:34;6.22;;;2.80;;
33475;SDS011;19814;48.224;11.422;2023-05-27T13:01:00;9.10;;;3.10;;
33475;SDS011;19814;48.224;11.422;2023-05-27T13:03:26;6.18;;;2.40;;
33475;SDS011;19814;48.224;11.422;2023-05-27T13:05:51;7.38;;;2.83;;
33475;SDS011;19814;48.224;11.422;2023-05-27T13:08:17;8.60;;;3.13;;
33475;SDS011;19814;48.224;11.422;2023-05-27T13:10:42;6.75;;;3.20;;
33475;SDS011;19814;48.224;11.422;2023-05-27T13:13:08;6.63;;;3.10;;
33475;SDS011;19814;48.224;11.422;2023-05-27T13:15:33;7.50;;;3.10;;
33475;SDS011;19814;48.224;11.422;2023-05-27T13:17:59;5.43;;;2.70;;
33475;SDS011;19814;48.224;11.422;2023-05-27T13:20:27;6.75;;;2.80;;
33475;SDS011;19814;48.224;11.422;2023-05-27T13:22:54;6.78;;;2.67;;
33475;SDS011;19814;48.224;11.422;2023-05-27T13:25:24;6.43;;;3.22;;
33475;SDS011;19814;48.224;11.422;2023-05-27T13:27:50;9.18;;;2.58;;
33475;SDS011;19814;48.224;11.422;2023-05-27T13:30:18;5.45;;;2.88;;
33475;SDS011;19814;48.224;11.422;2023-05-27T13:32:44;5.10;;;2.15;;
33475;SDS011;19814;48.224;11.422;2023-05-27T13:35:10;6.22;;;2.60;;
33475;SDS011;19814;48.224;11.422;2023-05-27T13:37:36;6.75;;;2.80;;
33475;SDS011;19814;48.224;11.422;2023-05-27T13:40:03;6.50;;;2.75;;
33475;SDS011;19814;48.224;11.422;2023-05-27T13:42:29;6.05;;;2.90;;
33475;SDS011;19814;48.224;11.422;2023-05-27T13:44:55;5.40;;;2.50;;
33475;SDS011;19814;48.224;11.422;2023-05-27T13:47:20;8.38;;;3.00;;
33475;SDS011;19814;48.224;11.422;2023-05-27T13:49:46;8.02;;;2.63;;
33475;SDS011;19814;48.224;11.422;2023-05-27T13:52:11;5.30;;;2.75;;
33475;SDS011;19814;48.224;11.422;2023-05-27T13:54:37;6.63;;;2.55;;
33475;SDS011;19814;48.224;11.422;2023-05-27T13:57:03;10.23;;;2.83;;
33475;SDS011;19814;48.224;11.422;2023-05-27T13:59:29;7.35;;;2.53;;
33475;SDS011;19814;48.224;11.422;2023-05-27T14:01:55;8.00;;;2.83;;
33475;SDS011;19814;48.224;11.422;2023-05-27T14:04:20;6.60;;;2.45;;
33475;SDS011;19814;48.224;11.422;2023-05-27T14:06:46;7.47;;;2.78;;
33475;SDS011;19814;48.224;11.422;2023-05-27T14:09:12;5.07;;;2.40;;
33475;SDS011;19814;48.224;11.422;2023-05-27T14:11:38;5.50;;;2.58;;
33475;SDS011;19814;48.224;11.422;2023-05-27T14:14:03;7.20;;;2.75;;
33475;SDS011;19814;48.224;11.422;2023-05-27T14:16:29;10.18;;;2.75;;
33475;SDS011;19814;48.224;11.422;2023-05-27T14:18:54;6.80;;;2.38;;
33475;SDS011;19814;48.224;11.422;2023-05-27T14:21:20;5.25;;;2.72;;
33475;SDS011;19814;48.224;11.422;2023-05-27T14:23:46;5.63;;;2.58;;
33475;SDS011;19814;48.224;11.422;2023-05-27T14:26:12;5.82;;;2.35;;
33475;SDS011;19814;48.224;11.422;2023-05-27T14:28:38;6.72;;;2.78;;
33475;SDS011;19814;48.224;11.422;2023-05-27T14:31:03;6.35;;;2.22;;
33475;SDS011;19814;48.224;11.422;2023-05-27T14:33:29;5.80;;;2.63;;
33475;SDS011;19814;48.224;11.422;2023-05-27T14:35:54;7.00;;;2.40;;